createdAt,value
2022-11-26T00:01:53.814Z,4.49
2022-11-26T00:04:56.866Z,4.46
2022-11-26T00:08:00.499Z,4.45
2022-11-26T00:11:02.941Z,4.42
2022-11-26T00:14:12.197Z,4.39
2022-11-26T00:17:14.956Z,4.35
2022-11-26T00:20:17.400Z,4.33
2022-11-26T00:23:24.850Z,4.29
2022-11-26T00:26:27.280Z,4.26
2022-11-26T00:29:28.905Z,4.24
2022-11-26T00:32:30.605Z,4.20
2022-11-26T00:35:32.218Z,4.16
2022-11-26T00:38:33.788Z,4.13
2022-11-26T00:41:38.711Z,4.08
2022-11-26T00:44:40.664Z,4.07
2022-11-26T00:47:42.278Z,4.03
2022-11-26T00:50:47.776Z,3.99
2022-11-26T00:53:50.739Z,3.94
2022-11-26T00:56:52.570Z,3.92
2022-11-26T00:59:54.108Z,3.89
2022-11-26T01:02:56.385Z,3.85
2022-11-26T01:05:59.012Z,3.82
2022-11-26T01:09:00.781Z,3.81
2022-11-26T01:12:02.344Z,3.78
2022-11-26T01:15:04.272Z,3.77
2022-11-26T01:18:18.793Z,3.73
2022-11-26T01:21:21.640Z,3.67
2022-11-26T01:24:23.146Z,3.65
2022-11-26T01:27:24.693Z,3.62
2022-11-26T01:30:30.759Z,3.60
2022-11-26T01:33:32.321Z,3.57
2022-11-26T01:36:39.264Z,3.53
2022-11-26T01:39:41.285Z,3.46
2022-11-26T01:42:46.858Z,3.41
2022-11-26T01:45:48.463Z,3.36
2022-11-26T01:48:50.707Z,3.32
2022-11-26T01:51:54.932Z,3.28
2022-11-26T01:54:56.508Z,3.24
2022-11-26T01:57:58.200Z,3.22
2022-11-26T02:01:00.755Z,3.19
2022-11-26T02:04:05.061Z,3.17
2022-11-26T02:07:06.673Z,3.15
2022-11-26T02:10:09.656Z,3.14
2022-11-26T02:13:11.460Z,3.15
2022-11-26T02:16:33.752Z,3.14
2022-11-26T02:19:55.235Z,3.12
2022-11-26T02:23:02.480Z,3.10
2022-11-26T02:26:16.235Z,3.08
2022-11-26T02:29:26.179Z,3.06
2022-11-26T02:32:40.295Z,3.04
2022-11-26T02:35:47.726Z,3.01
2022-11-26T02:38:50.345Z,2.99
2022-11-26T02:41:55.303Z,2.99
2022-11-26T02:45:07.756Z,2.98
2022-11-26T02:48:14.978Z,2.98
2022-11-26T02:51:23.056Z,2.97
2022-11-26T02:54:26.503Z,2.96
2022-11-26T02:57:32.790Z,2.95
2022-11-26T03:00:38.059Z,2.94
2022-11-26T03:03:46.631Z,2.93
2022-11-26T03:06:49.020Z,2.91
2022-11-26T03:09:50.477Z,2.91
2022-11-26T03:12:52.010Z,2.89
2022-11-26T03:15:53.583Z,2.88
2022-11-26T03:18:55.159Z,2.86
2022-11-26T03:21:56.724Z,2.83
2022-11-26T03:24:58.290Z,2.83
2022-11-26T03:27:59.896Z,2.81
2022-11-26T03:31:01.507Z,2.80
2022-11-26T03:34:03.067Z,2.77
2022-11-26T03:37:04.621Z,2.75
2022-11-26T03:40:07.460Z,2.73
2022-11-26T03:43:09.040Z,2.71
2022-11-26T03:46:10.736Z,2.70
2022-11-26T03:49:12.307Z,2.69
2022-11-26T03:52:13.981Z,2.69
2022-11-26T03:55:15.663Z,2.70
2022-11-26T03:58:17.431Z,2.69
2022-11-26T04:01:19.138Z,2.67
2022-11-26T04:04:20.675Z,2.65
2022-11-26T04:07:22.239Z,2.63
2022-11-26T04:10:24.157Z,2.59
2022-11-26T04:13:25.718Z,2.53
2022-11-26T04:16:27.375Z,2.51
2022-11-26T04:19:29.035Z,2.49
2022-11-26T04:22:30.638Z,2.46
2022-11-26T04:25:32.291Z,2.43
2022-11-26T04:28:33.999Z,2.38
2022-11-26T04:31:35.629Z,2.35
2022-11-26T04:34:37.642Z,2.32
2022-11-26T04:37:39.371Z,2.30
2022-11-26T04:40:40.963Z,2.26
2022-11-26T04:43:42.496Z,2.24
2022-11-26T04:46:44.024Z,2.21
2022-11-26T04:49:45.584Z,2.21
2022-11-26T04:52:50.843Z,2.21
2022-11-26T04:55:53.420Z,2.20
2022-11-26T04:58:54.931Z,2.19
2022-11-26T05:01:56.606Z,2.18
2022-11-26T05:04:58.142Z,2.22
2022-11-26T05:07:59.714Z,2.23
2022-11-26T05:11:03.089Z,2.23
2022-11-26T05:14:04.687Z,2.23
2022-11-26T05:17:06.348Z,2.22
2022-11-26T05:20:08.580Z,2.23
2022-11-26T05:23:10.221Z,2.24
2022-11-26T05:26:12.050Z,2.27
2022-11-26T05:29:13.675Z,2.28
2022-11-26T05:32:15.254Z,2.30
2022-11-26T05:35:16.979Z,2.31
2022-11-26T05:38:18.580Z,2.29
2022-11-26T05:41:20.134Z,2.30
2022-11-26T05:44:21.679Z,2.30
2022-11-26T05:47:23.267Z,2.49
2022-11-26T05:50:24.900Z,2.50
2022-11-26T05:53:26.583Z,2.49
2022-11-26T05:56:28.144Z,2.48
2022-11-26T05:59:29.848Z,2.46
2022-11-26T06:02:31.516Z,2.44
2022-11-26T06:05:33.074Z,2.41
2022-11-26T06:08:35.333Z,2.39
2022-11-26T06:11:36.935Z,2.36
2022-11-26T06:14:42.953Z,2.34
2022-11-26T06:17:45.092Z,2.32
2022-11-26T06:20:46.666Z,2.31
2022-11-26T06:23:55.961Z,2.32
2022-11-26T06:27:00.596Z,2.33
2022-11-26T06:30:04.710Z,2.34
2022-11-26T06:33:06.312Z,2.35
2022-11-26T06:36:07.902Z,2.37
2022-11-26T06:39:10.452Z,2.39
2022-11-26T06:42:12.019Z,2.42
2022-11-26T06:45:13.513Z,2.44
2022-11-26T06:48:15.048Z,2.47
2022-11-26T06:51:17.365Z,2.50
2022-11-26T06:54:18.925Z,2.61
2022-11-26T06:57:20.449Z,2.66
2022-11-26T07:00:22.617Z,2.69
2022-11-26T07:03:28.032Z,2.72
2022-11-26T07:06:33.188Z,2.75
2022-11-26T07:09:34.851Z,2.78
2022-11-26T07:12:36.363Z,2.84
2022-11-26T07:15:38.119Z,2.83
2022-11-26T07:18:40.206Z,2.82
2022-11-26T07:21:41.984Z,2.79
2022-11-26T07:24:43.682Z,2.77
2022-11-26T07:27:45.593Z,2.74
2022-11-26T07:30:47.211Z,2.72
2022-11-26T07:33:49.653Z,2.70
2022-11-26T07:36:56.662Z,2.70
2022-11-26T07:39:59.481Z,2.69
2022-11-26T07:43:01.121Z,2.69
2022-11-26T07:46:03.849Z,2.69
2022-11-26T07:49:05.402Z,2.69
2022-11-26T07:52:07.225Z,2.69
2022-11-26T07:55:12.485Z,2.69
2022-11-26T07:58:15.377Z,2.71
2022-11-26T08:01:20.419Z,2.72
2022-11-26T08:04:22.024Z,2.73
2022-11-26T08:07:28.980Z,2.70
2022-11-26T08:10:31.134Z,2.67
2022-11-26T08:13:32.742Z,2.66
2022-11-26T08:16:34.813Z,2.64
2022-11-26T08:19:36.544Z,2.66
2022-11-26T08:22:38.111Z,2.68
2022-11-26T08:25:59.285Z,2.70
2022-11-26T08:29:01.436Z,2.70
2022-11-26T08:32:03.230Z,2.73
2022-11-26T08:35:05.383Z,2.76
2022-11-26T08:38:07.100Z,2.78
2022-11-26T08:41:12.130Z,2.81
2022-11-26T08:44:13.697Z,2.82
2022-11-26T08:47:15.261Z,2.84
2022-11-26T08:50:17.065Z,2.86
2022-11-26T08:53:18.683Z,2.86
2022-11-26T08:56:20.426Z,2.87
2022-11-26T08:59:24.283Z,2.89
2022-11-26T09:02:26.036Z,3.01
2022-11-26T09:05:28.041Z,3.14
2022-11-26T09:08:29.688Z,3.76
2022-11-26T09:11:32.564Z,4.22
2022-11-26T09:14:40.081Z,4.30
2022-11-26T09:17:41.808Z,4.28
2022-11-26T09:20:43.414Z,4.23
2022-11-26T09:23:45.069Z,4.17
2022-11-26T09:26:48.581Z,4.11
2022-11-26T09:29:50.136Z,4.06
2022-11-26T09:32:51.672Z,4.01
2022-11-26T09:35:53.271Z,3.99
2022-11-26T09:38:59.172Z,3.98
2022-11-26T09:42:03.473Z,3.95
2022-11-26T09:45:14.049Z,3.92
2022-11-26T09:48:24.690Z,3.92
2022-11-26T09:51:27.305Z,3.88
2022-11-26T09:54:30.299Z,3.86
2022-11-26T09:57:49.062Z,3.86
2022-11-26T10:00:53.078Z,3.87
2022-11-26T10:03:54.776Z,3.88
2022-11-26T10:07:26.177Z,3.90
2022-11-26T10:10:45.725Z,3.91
2022-11-26T10:14:09.890Z,3.95
2022-11-26T10:17:14.499Z,3.96
2022-11-26T10:20:54.761Z,3.99
2022-11-26T10:24:04.190Z,3.99
2022-11-26T10:27:13.202Z,4.02
2022-11-26T10:30:22.484Z,4.08
2022-11-26T10:33:24.528Z,4.11
2022-11-26T10:36:39.343Z,4.19
2022-11-26T10:39:40.881Z,4.24
2022-11-26T10:42:47.617Z,4.29
2022-11-26T10:45:54.703Z,4.33
2022-11-26T10:49:16.941Z,4.59
2022-11-26T10:52:31.290Z,4.76
2022-11-26T10:55:41.766Z,4.81
2022-11-26T10:58:45.288Z,4.85
2022-11-26T11:01:51.734Z,5.10
2022-11-26T11:05:01.236Z,5.59
2022-11-26T11:08:02.962Z,6.01
2022-11-26T11:11:05.136Z,6.13
2022-11-26T11:14:28.520Z,6.10
2022-11-26T11:17:34.966Z,6.02
2022-11-26T11:20:38.969Z,5.92
2022-11-26T11:24:07.183Z,5.83
2022-11-26T11:27:02.206Z,5.74
2022-11-26T11:30:04.226Z,5.68
2022-11-26T11:33:21.444Z,5.64
2022-11-26T11:36:29.339Z,5.60
2022-11-26T11:39:33.603Z,5.58
2022-11-26T11:42:35.356Z,5.56
2022-11-26T11:45:52.726Z,5.56
2022-11-26T11:49:32.212Z,5.57
2022-11-26T11:52:52.828Z,5.59
2022-11-26T11:56:31.165Z,5.60
2022-11-26T12:00:10.631Z,5.59
2022-11-26T12:03:31.103Z,5.61
2022-11-26T12:07:06.906Z,5.62
2022-11-26T12:10:16.827Z,5.64
2022-11-26T12:13:23.584Z,5.65
2022-11-26T12:16:29.149Z,5.67
2022-11-26T12:19:36.528Z,5.67
2022-11-26T12:22:49.518Z,5.66
2022-11-26T12:26:26.688Z,5.65
2022-11-26T12:29:41.860Z,5.66
2022-11-26T12:32:51.134Z,5.66
2022-11-26T12:35:59.441Z,5.69
2022-11-26T12:39:03.556Z,5.72
2022-11-26T12:42:17.650Z,5.70
2022-11-26T12:45:33.125Z,5.71
2022-11-26T12:48:35.060Z,5.69
2022-11-26T12:51:44.404Z,5.69
2022-11-26T12:55:04.190Z,5.71
2022-11-26T12:58:12.661Z,5.71
2022-11-26T13:01:14.433Z,5.72
2022-11-26T13:08:07.683Z,6.09
2022-11-26T13:11:39.539Z,6.43
2022-11-26T13:14:50.923Z,6.69
2022-11-26T13:17:53.228Z,6.95
2022-11-26T13:21:03.516Z,7.17
2022-11-26T13:24:05.741Z,7.30
2022-11-26T13:27:37.070Z,7.49
2022-11-26T13:30:54.405Z,7.65
2022-11-26T13:34:15.737Z,7.69
2022-11-26T13:37:36.399Z,7.56
2022-11-26T13:41:21.115Z,7.35
2022-11-26T13:44:43.710Z,7.17
2022-11-26T13:47:58.448Z,7.02
2022-11-26T13:51:14.207Z,6.88
2022-11-26T13:54:32.482Z,6.72
2022-11-26T13:57:41.549Z,6.58
2022-11-26T14:00:43.482Z,6.47
2022-11-26T14:03:48.571Z,6.37
2022-11-26T14:07:05.448Z,6.30
2022-11-26T14:10:28.818Z,6.24
2022-11-26T14:13:30.631Z,6.19
2022-11-26T14:17:01.088Z,6.16
2022-11-26T14:20:04.508Z,6.24
2022-11-26T14:23:41.499Z,6.21
2022-11-26T14:26:43.032Z,6.17
2022-11-26T14:29:46.477Z,6.14
2022-11-26T14:32:52.348Z,6.11
2022-11-26T14:35:56.575Z,6.08
2022-11-26T14:39:11.278Z,6.02
2022-11-26T14:42:17.587Z,5.96
2022-11-26T14:45:21.626Z,5.92
2022-11-26T14:48:28.762Z,5.88
2022-11-26T14:51:32.089Z,5.84
2022-11-26T14:54:38.558Z,5.80
2022-11-26T14:57:48.303Z,5.76
2022-11-26T15:01:15.013Z,5.74
2022-11-26T15:04:44.926Z,5.70
2022-11-26T15:07:47.693Z,5.68
2022-11-26T15:11:05.805Z,5.66
2022-11-26T15:14:32.867Z,5.64
2022-11-26T15:17:35.442Z,5.71
2022-11-26T15:20:37.013Z,5.71
2022-11-26T15:23:39.485Z,5.72
2022-11-26T15:26:45.308Z,5.73
2022-11-26T15:29:49.984Z,5.73
2022-11-26T15:33:00.795Z,5.73
2022-11-26T15:36:03.974Z,5.80
2022-11-26T15:39:08.043Z,5.94
2022-11-26T15:42:26.915Z,5.95
2022-11-26T15:45:39.245Z,5.96
2022-11-26T15:48:52.038Z,5.92
2022-11-26T15:52:14.923Z,5.89
2022-11-26T15:55:26.151Z,5.85
2022-11-26T15:58:49.206Z,5.84
2022-11-26T16:01:50.843Z,5.85
2022-11-26T16:04:55.962Z,5.87
2022-11-26T16:08:04.815Z,5.90
2022-11-26T16:11:08.797Z,5.89
2022-11-26T16:14:31.793Z,5.87
2022-11-26T16:17:33.440Z,5.85
2022-11-26T16:20:35.002Z,5.86
2022-11-26T16:23:36.840Z,5.87
2022-11-26T16:27:01.021Z,5.86
2022-11-26T16:30:07.587Z,5.85
2022-11-26T16:33:09.898Z,5.88
2022-11-26T16:36:22.483Z,5.86
2022-11-26T16:39:27.480Z,5.86
2022-11-26T16:42:33.081Z,5.84
2022-11-26T16:45:34.637Z,5.82
2022-11-26T16:48:36.247Z,5.80
2022-11-26T16:51:37.806Z,5.77
2022-11-26T16:54:39.713Z,5.77
2022-11-26T16:57:46.604Z,5.79
2022-11-26T17:00:48.488Z,5.79
2022-11-26T17:03:50.143Z,5.80
2022-11-26T17:06:51.785Z,5.78
2022-11-26T17:09:53.881Z,5.77
2022-11-26T17:12:55.890Z,5.76
2022-11-26T17:15:57.884Z,5.74
2022-11-26T17:18:59.522Z,5.74
2022-11-26T17:22:01.098Z,5.74
2022-11-26T17:25:02.711Z,5.74
2022-11-26T17:28:10.676Z,5.74
2022-11-26T17:31:12.306Z,5.74
2022-11-26T17:34:13.987Z,5.73
2022-11-26T17:37:19.658Z,5.72
2022-11-26T17:40:22.968Z,5.71
2022-11-26T17:43:24.506Z,5.72
2022-11-26T17:46:26.173Z,5.74
2022-11-26T17:49:27.894Z,5.76
2022-11-26T17:52:29.425Z,5.76
2022-11-26T17:55:31.469Z,5.74
2022-11-26T17:58:33.041Z,5.74
2022-11-26T18:01:34.779Z,5.85
2022-11-26T18:04:36.955Z,6.05
2022-11-26T18:07:39.510Z,6.07
2022-11-26T18:10:41.259Z,6.05
2022-11-26T18:13:43.050Z,6.04
2022-11-26T18:16:45.374Z,6.02
2022-11-26T18:19:47.491Z,6.01
2022-11-26T18:22:58.086Z,5.98
2022-11-26T18:25:59.641Z,5.96
2022-11-26T18:29:04.275Z,5.93
2022-11-26T18:32:05.959Z,5.89
2022-11-26T18:35:08.063Z,5.86
2022-11-26T18:38:11.451Z,5.84
2022-11-26T18:41:13.701Z,5.83
2022-11-26T18:44:15.335Z,5.82
2022-11-26T18:47:16.956Z,5.79
2022-11-26T18:50:18.859Z,5.79
2022-11-26T18:53:20.377Z,5.77
2022-11-26T18:56:23.180Z,5.76
2022-11-26T18:59:24.755Z,5.75
2022-11-26T19:02:26.344Z,5.75
2022-11-26T19:05:27.995Z,5.74
2022-11-26T19:08:29.528Z,5.75
2022-11-26T19:11:32.064Z,5.76
2022-11-26T19:14:33.587Z,5.79
2022-11-26T19:17:35.113Z,5.81
2022-11-26T19:20:36.648Z,5.81
2022-11-26T19:23:38.324Z,5.81
2022-11-26T19:26:41.448Z,5.81
2022-11-26T19:29:43.061Z,5.81
2022-11-26T19:32:44.764Z,5.77
2022-11-26T19:35:46.296Z,5.74
2022-11-26T19:38:48.234Z,5.73
2022-11-26T19:41:49.850Z,5.73
2022-11-26T19:44:51.400Z,5.73
2022-11-26T19:47:53.827Z,5.72
2022-11-26T19:50:55.762Z,5.70
2022-11-26T19:53:57.341Z,5.68
2022-11-26T19:56:58.850Z,5.68
2022-11-26T20:00:00.387Z,5.67
2022-11-26T20:03:02.079Z,5.64
2022-11-26T20:06:13.054Z,5.60
2022-11-26T20:09:14.866Z,5.54
2022-11-26T20:12:16.359Z,5.51
2022-11-26T20:15:18.151Z,5.48
2022-11-26T20:18:19.680Z,5.43
2022-11-26T20:21:25.783Z,5.38
2022-11-26T20:24:27.348Z,5.32
2022-11-26T20:27:28.910Z,5.29
2022-11-26T20:30:31.956Z,5.27
2022-11-26T20:33:35.156Z,5.25
2022-11-26T20:36:37.761Z,5.23
2022-11-26T20:39:39.626Z,5.24
2022-11-26T20:42:45.387Z,5.22
2022-11-26T20:45:47.726Z,5.20
2022-11-26T20:48:49.334Z,5.19
2022-11-26T20:51:50.987Z,5.17
2022-11-26T20:54:54.024Z,5.14
2022-11-26T20:57:55.665Z,5.11
2022-11-26T21:00:57.817Z,5.09
2022-11-26T21:03:59.452Z,5.07
2022-11-26T21:07:00.996Z,5.06
2022-11-26T21:10:02.795Z,5.04
2022-11-26T21:13:04.448Z,5.02
2022-11-26T21:16:10.546Z,5.00
2022-11-26T21:19:12.783Z,4.99
2022-11-26T21:22:14.331Z,4.98
2022-11-26T21:25:16.030Z,4.96
2022-11-26T21:28:20.053Z,4.92
2022-11-26T21:31:22.780Z,4.93
2022-11-26T21:34:24.903Z,4.92
2022-11-26T21:37:27.837Z,4.92
2022-11-26T21:40:29.892Z,4.91
2022-11-26T21:43:31.667Z,4.91
2022-11-26T21:46:38.340Z,4.90
2022-11-26T21:49:40.867Z,4.89
2022-11-26T21:52:42.624Z,4.89
2022-11-26T21:55:44.169Z,4.90
2022-11-26T21:58:46.296Z,4.89
2022-11-26T22:01:48.056Z,4.89
2022-11-26T22:04:49.666Z,4.90
2022-11-26T22:07:51.679Z,4.91
2022-11-26T22:10:53.254Z,4.93
2022-11-26T22:13:55.487Z,4.96
2022-11-26T22:16:57.095Z,4.96
2022-11-26T22:19:58.613Z,4.96
2022-11-26T22:23:00.147Z,5.00
2022-11-26T22:26:01.733Z,5.02
2022-11-26T22:29:04.119Z,5.03
2022-11-26T22:32:05.819Z,5.04
2022-11-26T22:35:07.751Z,5.03
2022-11-26T22:38:09.312Z,5.04
2022-11-26T22:41:13.308Z,5.03
2022-11-26T22:44:15.908Z,5.02
2022-11-26T22:47:17.451Z,5.00
2022-11-26T22:50:19.276Z,4.99
2022-11-26T22:53:22.108Z,4.97
2022-11-26T22:56:24.411Z,4.97
2022-11-26T22:59:27.602Z,4.97
2022-11-26T23:02:29.384Z,4.97
2022-11-26T23:05:30.936Z,4.95
2022-11-26T23:08:32.845Z,4.94
2022-11-26T23:11:37.787Z,4.94
2022-11-26T23:14:39.299Z,5.34
2022-11-26T23:17:40.840Z,5.72
2022-11-26T23:20:43.399Z,5.72
2022-11-26T23:23:45.326Z,5.67
2022-11-26T23:26:47.136Z,5.60
2022-11-26T23:29:48.728Z,5.53
2022-11-26T23:32:50.329Z,5.45
2022-11-26T23:35:51.821Z,5.33
2022-11-26T23:38:53.811Z,5.25
2022-11-26T23:41:55.381Z,5.17
2022-11-26T23:44:56.934Z,5.11
2022-11-26T23:47:59.648Z,5.07
2022-11-26T23:51:01.289Z,5.03
2022-11-26T23:54:02.947Z,4.98
2022-11-26T23:57:04.459Z,4.94
